Main page
Satellite images 15-day forecastsClimateMarine weather Cyclones Lightning AirportsFAQ Newsletter About
Weather : Europe Africa North America South America Asia Australia-Oceania Others
Languages Contact

Gloucester, England

Gloucestershire Airport Staverton

latitude: 51-54N, longitude: 002-10W, elevation: 29 m


METAR: EGBJ 201820Z 28005KT 9999 FEW040 16/08 Q1017
short-TAF: EGBJ 201359Z 2015/2019 29007KT 9999 FEW040
long-TAF: missing

Time: 03:21 (02:21 UTC)

Current weather observation

The report was made 8 hours and 1 minutes ago, at 18:20 UTC  
Wind 05 kt from the West
Temperature 16°C
Humidity 59%
Pressure 1017 hPa
Visibility 10 km or more
Few clouds at a height of 4000 ft

Change units

Forecast

The report was made 12 hours and 6 minutes ago, at 14:15 UTC  
Forecast valid from 20 at 15 UTC to 20 at 19 UTC
Wind 07 kt from the West/Northwest
Visibility 10 km or more
Few clouds at a height of 4000 ft
The information on this site is subject to a disclaimer
Weather : Europe Africa North America South America Asia Australia-Oceania Others
Satellite images 15-day forecastsClimateMarine weather Cyclones Lightning AirportsFAQ Languages Contact Newsletter About